CFG8DP HEGN-EDDK
Flight info
| Callsign | CFG8DP |
|---|---|
| Flight time | N/A |
| Altitude | 30000 |
| Route | HGD V608 NABED T55 TANSA/N0462F320 UL613 KOR DCT XANIS DCT DIMIS DCT RODON DCT VAKSU/N0454F340 DCT MONFA DCT SOTOV DCT KPT DCT ETASA DCT ASKIK DCT DILUG/N0413F240 T840 GULKO GULKO1C |
| Aircraft | A321/M-SDE3FGHIRWY/LB1 |
Departure
| Time | 2026-04-27 14:51 |
|---|---|
| Airport | Hurghada International Airport (HEGN) |
Arrival
| Time | N/A |
|---|---|
| Airport | Cologne Bonn Airport (EDDK) |
| Time | Latitude | Longitude | Altitude | Speed | Heading |
|---|---|---|---|---|---|
| 2026-04-27 14:21 | 27.17933 | 33.80597 | 58 ft | 0 kts | 75° |
| 2026-04-27 14:40 | 27.17932 | 33.80592 | 58 ft | 3 kts | 76° |
| 2026-04-27 14:41 | 27.17927 | 33.80563 | 52 ft | 4 kts | 82° |
| 2026-04-27 14:41 | 27.17925 | 33.80533 | 58 ft | 4 kts | 95° |
| 2026-04-27 14:41 | 27.17931 | 33.80505 | 51 ft | 4 kts | 131° |
| 2026-04-27 14:41 | 27.17940 | 33.80496 | 58 ft | 0 kts | 165° |
| 2026-04-27 14:43 | 27.17939 | 33.80497 | 58 ft | 1 kts | 165° |
| 2026-04-27 14:44 | 27.17910 | 33.80505 | 58 ft | 7 kts | 165° |
| 2026-04-27 14:44 | 27.17845 | 33.80525 | 53 ft | 12 kts | 166° |
| 2026-04-27 14:44 | 27.17750 | 33.80553 | 54 ft | 16 kts | 165° |
| 2026-04-27 14:44 | 27.17650 | 33.80582 | 58 ft | 14 kts | 165° |
| 2026-04-27 14:45 | 27.17561 | 33.80611 | 53 ft | 13 kts | 163° |
| 2026-04-27 14:45 | 27.17482 | 33.80634 | 52 ft | 11 kts | 167° |
| 2026-04-27 14:45 | 27.17413 | 33.80654 | 51 ft | 10 kts | 165° |
| 2026-04-27 14:45 | 27.17352 | 33.80672 | 58 ft | 8 kts | 165° |
| 2026-04-27 14:46 | 27.17301 | 33.80688 | 58 ft | 8 kts | 165° |
| 2026-04-27 14:46 | 27.17215 | 33.80714 | 50 ft | 16 kts | 165° |
| 2026-04-27 14:46 | 27.17129 | 33.80739 | 52 ft | 10 kts | 168° |
| 2026-04-27 14:46 | 27.17065 | 33.80698 | 52 ft | 13 kts | 245° |
| 2026-04-27 14:47 | 27.17035 | 33.80585 | 54 ft | 15 kts | 254° |
| 2026-04-27 14:47 | 27.16937 | 33.80542 | 51 ft | 19 kts | 167° |
| 2026-04-27 14:47 | 27.16807 | 33.80580 | 46 ft | 19 kts | 166° |
| 2026-04-27 14:47 | 27.16685 | 33.80614 | 48 ft | 17 kts | 166° |
| 2026-04-27 14:48 | 27.16581 | 33.80644 | 48 ft | 14 kts | 165° |
| 2026-04-27 14:48 | 27.16396 | 33.80702 | 44 ft | 14 kts | 163° |
| 2026-04-27 14:48 | 27.16305 | 33.80734 | 42 ft | 13 kts | 163° |
| 2026-04-27 14:49 | 27.16218 | 33.80764 | 42 ft | 13 kts | 163° |
| 2026-04-27 14:49 | 27.16148 | 33.80722 | 38 ft | 11 kts | 250° |
| 2026-04-27 14:49 | 27.16135 | 33.80651 | 42 ft | 7 kts | 260° |
| 2026-04-27 14:49 | 27.16139 | 33.80613 | 43 ft | 4 kts | 302° |
| 2026-04-27 14:50 | 27.16175 | 33.80598 | 43 ft | 6 kts | 345° |
| 2026-04-27 14:50 | 27.16222 | 33.80584 | 42 ft | 12 kts | 345° |
| 2026-04-27 14:50 | 27.16462 | 33.80517 | 47 ft | 65 kts | 345° |
| 2026-04-27 14:50 | 27.16832 | 33.80407 | 47 ft | 101 kts | 345° |
| 2026-04-27 14:51 | 27.17654 | 33.80163 | 54 ft | 141 kts | 345° |
| 2026-04-27 14:51 | 27.18708 | 33.79897 | 235 ft | 160 kts | 344° |
| 2026-04-27 14:51 | 27.19764 | 33.79565 | 884 ft | 160 kts | 342° |
| 2026-04-27 14:51 | 27.20844 | 33.79187 | 1394 ft | 163 kts | 345° |
| 2026-04-27 14:52 | 27.21968 | 33.78794 | 1556 ft | 176 kts | 343° |
| 2026-04-27 14:52 | 27.23173 | 33.78382 | 1682 ft | 186 kts | 342° |
| 2026-04-27 14:52 | 27.24442 | 33.77958 | 1820 ft | 193 kts | 341° |
| 2026-04-27 14:52 | 27.25754 | 33.77495 | 1616 ft | 211 kts | 333° |
| 2026-04-27 14:53 | 27.27037 | 33.76552 | 1855 ft | 212 kts | 313° |
| 2026-04-27 14:53 | 27.27780 | 33.75176 | 2426 ft | 208 kts | 287° |
| 2026-04-27 14:53 | 27.28074 | 33.73508 | 2555 ft | 231 kts | 274° |
| 2026-04-27 14:53 | 27.27970 | 33.71630 | 2818 ft | 248 kts | 262° |
| 2026-04-27 14:54 | 27.27686 | 33.69692 | 3318 ft | 254 kts | 260° |
| 2026-04-27 14:54 | 27.27327 | 33.67741 | 3566 ft | 269 kts | 259° |
| 2026-04-27 14:54 | 27.27106 | 33.65685 | 4254 ft | 255 kts | 266° |
| 2026-04-27 14:54 | 27.27073 | 33.63695 | 4869 ft | 255 kts | 272° |
| 2026-04-27 14:55 | 27.27198 | 33.61709 | 5396 ft | 253 kts | 276° |
| 2026-04-27 14:55 | 27.27354 | 33.59781 | 6082 ft | 240 kts | 273° |
| 2026-04-27 14:55 | 27.27504 | 33.57854 | 5516 ft | 268 kts | 277° |
| 2026-04-27 14:55 | 27.27744 | 33.55961 | 6437 ft | 215 kts | 278° |
| 2026-04-27 14:56 | 27.27959 | 33.54462 | 7687 ft | 191 kts | 272° |
| 2026-04-27 14:56 | 27.28025 | 33.52850 | 7352 ft | 229 kts | 267° |
| 2026-04-27 14:56 | 27.27979 | 33.51012 | 7572 ft | 235 kts | 266° |
| 2026-04-27 14:56 | 27.27874 | 33.49218 | 8272 ft | 229 kts | 262° |
| 2026-04-27 14:57 | 27.27712 | 33.47445 | 8807 ft | 226 kts | 262° |
| 2026-04-27 14:57 | 27.27572 | 33.45709 | 9385 ft | 220 kts | 262° |
| 2026-04-27 14:57 | 27.27459 | 33.43987 | 9122 ft | 227 kts | 270° |
| 2026-04-27 14:57 | 27.27885 | 33.41970 | 7335 ft | 281 kts | 276° |
| 2026-04-27 14:58 | 27.27992 | 33.39972 | 8108 ft | 240 kts | 267° |
| 2026-04-27 14:58 | 27.27917 | 33.38137 | 7660 ft | 245 kts | 265° |
| 2026-04-27 14:58 | 27.27779 | 33.36239 | 7659 ft | 234 kts | 264° |
| 2026-04-27 14:58 | 27.27644 | 33.34452 | 8282 ft | 227 kts | 261° |
| 2026-04-27 14:59 | 27.27449 | 33.32703 | 8827 ft | 223 kts | 259° |
| 2026-04-27 14:59 | 27.27232 | 33.31014 | 9418 ft | 213 kts | 263° |
| 2026-04-27 14:59 | 27.27198 | 33.29329 | 9709 ft | 222 kts | 266° |
| 2026-04-27 14:59 | 27.27250 | 33.27539 | 9845 ft | 235 kts | 268° |
| 2026-04-27 15:00 | 27.27326 | 33.25703 | 10247 ft | 236 kts | 269° |
| 2026-04-27 15:00 | 27.27411 | 33.23824 | 10486 ft | 244 kts | 270° |
| 2026-04-27 15:00 | 27.27511 | 33.21929 | 10856 ft | 242 kts | 271° |
| 2026-04-27 15:00 | 27.27628 | 33.20000 | 11085 ft | 253 kts | 270° |
| 2026-04-27 15:01 | 27.28101 | 33.18117 | 11596 ft | 252 kts | 282° |
| 2026-04-27 15:01 | 27.28557 | 33.16112 | 11700 ft | 275 kts | 279° |
| 2026-04-27 15:01 | 27.28930 | 33.13978 | 12156 ft | 280 kts | 275° |
| 2026-04-27 15:01 | 27.29011 | 33.11747 | 12362 ft | 293 kts | 265° |
| 2026-04-27 15:02 | 27.28772 | 33.09429 | 12546 ft | 304 kts | 259° |
| 2026-04-27 15:02 | 27.28367 | 33.07070 | 12931 ft | 311 kts | 256° |
| 2026-04-27 15:02 | 27.27886 | 33.04677 | 13206 ft | 317 kts | 261° |
| 2026-04-27 15:02 | 27.27767 | 33.02215 | 13487 ft | 323 kts | 269° |
| 2026-04-27 15:03 | 27.27912 | 32.99677 | 13830 ft | 327 kts | 273° |
| 2026-04-27 15:03 | 27.28120 | 32.97107 | 14141 ft | 332 kts | 273° |
| 2026-04-27 15:03 | 27.28353 | 32.94509 | 14466 ft | 337 kts | 274° |
| 2026-04-27 15:03 | 27.28636 | 32.91825 | 14352 ft | 341 kts | 276° |
| 2026-04-27 15:04 | 27.28901 | 32.89378 | 15452 ft | 327 kts | 274° |
| 2026-04-27 15:04 | 27.29079 | 32.86813 | 15797 ft | 332 kts | 271° |
| 2026-04-27 15:04 | 27.29150 | 32.84206 | 16122 ft | 336 kts | 269° |
| 2026-04-27 15:04 | 27.29111 | 32.81565 | 16462 ft | 338 kts | 266° |
| 2026-04-27 15:05 | 27.28962 | 32.78923 | 16804 ft | 340 kts | 264° |
| 2026-04-27 15:05 | 27.28829 | 32.76225 | 14850 ft | 376 kts | 276° |
| 2026-04-27 15:05 | 27.29153 | 32.73329 | 15043 ft | 355 kts | 273° |